createdAt,value
2022-08-17T00:00:34.603Z,24.30
2022-08-17T00:03:06.173Z,24.30
2022-08-17T00:05:36.847Z,24.30
2022-08-17T00:08:06.524Z,24.30
2022-08-17T00:10:35.051Z,24.40
2022-08-17T00:13:07.706Z,24.30
2022-08-17T00:15:35.657Z,24.30
2022-08-17T00:18:03.712Z,24.20
2022-08-17T00:20:51.496Z,24.10
2022-08-17T00:23:20.951Z,24.00
2022-08-17T00:25:49.169Z,23.90
2022-08-17T00:28:18.091Z,23.90
2022-08-17T00:30:53.139Z,23.90
2022-08-17T00:33:25.561Z,23.80
2022-08-17T00:35:54.254Z,23.80
2022-08-17T00:38:24.746Z,23.80
2022-08-17T00:43:30.678Z,23.80
2022-08-17T00:45:59.267Z,23.80
2022-08-17T00:48:30.435Z,23.80
2022-08-17T00:51:03.714Z,23.70
2022-08-17T00:53:35.693Z,23.70
2022-08-17T00:56:07.760Z,23.80
2022-08-17T00:58:37.297Z,23.80
2022-08-17T01:01:06.526Z,23.80
2022-08-17T01:03:35.666Z,23.80
2022-08-17T01:06:05.053Z,23.80
2022-08-17T01:08:34.768Z,23.80
2022-08-17T01:11:05.346Z,23.70
2022-08-17T01:13:40.848Z,23.70
2022-08-17T01:16:16.561Z,23.60
2022-08-17T01:18:46.244Z,23.50
2022-08-17T01:21:21.258Z,23.50
2022-08-17T01:23:50.409Z,23.40
2022-08-17T01:26:19.277Z,23.40
2022-08-17T01:28:54.586Z,23.40
2022-08-17T01:31:25.059Z,23.40
2022-08-17T01:33:53.232Z,23.40
2022-08-17T01:36:21.582Z,23.30
2022-08-17T01:38:50.834Z,23.30
2022-08-17T01:41:19.553Z,23.30
2022-08-17T01:43:51.887Z,23.30
2022-08-17T01:46:24.976Z,23.30
2022-08-17T01:48:52.911Z,23.30
2022-08-17T01:51:21.422Z,23.30
2022-08-17T01:53:53.162Z,23.30
2022-08-17T01:56:24.167Z,23.20
2022-08-17T01:58:53.232Z,23.10
2022-08-17T02:01:26.514Z,23.10
2022-08-17T02:04:00.618Z,23.00
2022-08-17T02:06:31.429Z,23.00
2022-08-17T02:09:16.573Z,23.00
2022-08-17T02:11:45.329Z,23.00
2022-08-17T02:14:14.489Z,22.90
2022-08-17T02:16:43.338Z,22.80
2022-08-17T02:19:13.386Z,22.80
2022-08-17T02:21:43.082Z,22.80
2022-08-17T02:24:16.417Z,22.70
2022-08-17T02:26:46.223Z,22.80
2022-08-17T02:29:15.733Z,22.80
2022-08-17T02:31:43.931Z,22.80
2022-08-17T02:34:12.306Z,22.90
2022-08-17T02:36:40.121Z,22.90
2022-08-17T02:39:13.237Z,22.90
2022-08-17T02:41:41.459Z,22.80
2022-08-17T02:44:09.523Z,22.90
2022-08-17T02:46:37.704Z,22.90
2022-08-17T02:49:06.161Z,22.90
2022-08-17T02:51:35.200Z,22.90
2022-08-17T02:54:41.618Z,22.90
2022-08-17T02:56:52.664Z,22.90
2022-08-17T02:59:20.584Z,22.90
2022-08-17T03:01:48.625Z,22.90
2022-08-17T03:04:16.471Z,22.90
2022-08-17T03:06:44.335Z,22.90
2022-08-17T03:09:13.196Z,22.90
2022-08-17T03:11:41.061Z,22.90
2022-08-17T03:14:10.414Z,22.90
2022-08-17T03:16:38.287Z,22.90
2022-08-17T03:19:07.155Z,22.90
2022-08-17T03:21:34.954Z,22.90
2022-08-17T03:24:06.914Z,22.90
2022-08-17T03:26:37.591Z,22.90
2022-08-17T03:29:05.452Z,22.90
2022-08-17T03:31:34.613Z,22.90
2022-08-17T03:36:36.139Z,22.80
2022-08-17T03:39:04.158Z,22.80
2022-08-17T03:41:32.559Z,22.80
2022-08-17T03:44:00.424Z,22.80
2022-08-17T03:46:46.072Z,22.80
2022-08-17T03:49:32.777Z,22.70
2022-08-17T03:52:18.468Z,22.70
2022-08-17T03:55:04.173Z,22.70
2022-08-17T03:57:33.444Z,22.60
2022-08-17T04:00:01.378Z,22.60
2022-08-17T04:02:31.608Z,22.50
2022-08-17T04:05:01.513Z,22.40
2022-08-17T04:07:31.486Z,22.50
2022-08-17T04:09:59.770Z,22.40
2022-08-17T04:12:30.929Z,22.40
2022-08-17T04:14:59.014Z,22.40
2022-08-17T04:17:28.603Z,22.40
2022-08-17T04:19:57.398Z,22.30
2022-08-17T04:22:33.203Z,22.30
2022-08-17T04:25:04.456Z,22.30
2022-08-17T04:27:32.300Z,22.20
2022-08-17T04:30:00.176Z,22.20
2022-08-17T04:33:05.145Z,22.20
2022-08-17T04:35:20.433Z,22.20
2022-08-17T04:37:50.171Z,22.10
2022-08-17T04:40:37.271Z,22.10
2022-08-17T04:43:07.506Z,22.10
2022-08-17T04:45:39.128Z,22.10
2022-08-17T04:48:07.667Z,22.10
2022-08-17T04:50:36.099Z,22.20
2022-08-17T04:53:05.352Z,22.20
2022-08-17T04:55:33.169Z,22.20
2022-08-17T04:58:00.997Z,22.20
2022-08-17T05:00:28.898Z,22.20
2022-08-17T05:02:57.382Z,22.20
2022-08-17T05:05:28.870Z,22.20
2022-08-17T05:08:02.444Z,22.20
2022-08-17T05:10:34.785Z,22.10
2022-08-17T05:13:08.106Z,22.10
2022-08-17T05:15:39.291Z,22.10
2022-08-17T05:18:13.972Z,22.10
2022-08-17T05:20:42.252Z,22.10
2022-08-17T05:23:12.422Z,22.10
2022-08-17T05:25:47.406Z,22.10
2022-08-17T05:28:16.801Z,22.20
2022-08-17T05:30:49.196Z,22.30
2022-08-17T05:33:20.521Z,22.30
2022-08-17T05:35:51.325Z,22.30
2022-08-17T05:38:22.384Z,22.40
2022-08-17T05:40:53.196Z,22.50
2022-08-17T05:43:23.185Z,22.60
2022-08-17T05:45:58.666Z,22.60
2022-08-17T05:48:35.490Z,22.70
2022-08-17T05:51:33.079Z,22.70
2022-08-17T05:54:22.583Z,22.80
2022-08-17T05:57:08.811Z,22.80
2022-08-17T05:59:49.258Z,22.80
2022-08-17T06:02:23.407Z,22.80
2022-08-17T06:05:09.717Z,22.80
2022-08-17T06:07:48.705Z,22.90
2022-08-17T06:10:29.507Z,22.90
2022-08-17T06:13:06.628Z,22.90
2022-08-17T06:15:51.804Z,22.90
2022-08-17T06:18:21.221Z,22.90
2022-08-17T06:20:53.667Z,22.80
2022-08-17T06:23:27.335Z,22.80
2022-08-17T06:26:03.650Z,22.80
2022-08-17T06:28:48.432Z,22.90
2022-08-17T06:31:22.278Z,22.90
2022-08-17T06:33:51.051Z,22.90
2022-08-17T06:36:31.438Z,22.90
2022-08-17T06:39:18.570Z,22.90
2022-08-17T06:41:54.231Z,22.90
2022-08-17T06:44:43.615Z,22.90
2022-08-17T06:47:28.363Z,22.90
2022-08-17T06:50:07.949Z,22.90
2022-08-17T06:52:55.580Z,22.90
2022-08-17T06:55:35.838Z,23.00
2022-08-17T06:58:16.155Z,23.10
2022-08-17T07:00:49.037Z,23.30
2022-08-17T07:03:27.538Z,23.80
2022-08-17T07:05:59.792Z,23.40
2022-08-17T07:08:39.259Z,23.50
2022-08-17T07:11:12.975Z,23.60
2022-08-17T07:13:51.126Z,23.60
2022-08-17T07:16:27.398Z,23.60
2022-08-17T07:18:57.570Z,23.60
2022-08-17T07:21:44.214Z,23.60
2022-08-17T07:24:26.050Z,23.70
2022-08-17T07:27:16.093Z,23.70
2022-08-17T07:29:50.441Z,23.70
2022-08-17T07:32:24.916Z,23.70
2022-08-17T07:35:11.011Z,23.80
2022-08-17T07:37:40.641Z,23.80
2022-08-17T07:40:19.529Z,23.70
2022-08-17T07:43:06.930Z,23.70
2022-08-17T07:45:54.208Z,23.80
2022-08-17T07:48:26.883Z,23.80
2022-08-17T07:50:57.206Z,23.90
2022-08-17T07:53:27.423Z,23.90
2022-08-17T07:55:55.355Z,24.00
2022-08-17T07:58:26.435Z,24.20
2022-08-17T08:01:06.569Z,24.20
2022-08-17T08:03:43.072Z,24.30
2022-08-17T08:06:21.931Z,24.40
2022-08-17T08:08:53.621Z,24.40
2022-08-17T08:11:32.128Z,24.40
2022-08-17T08:14:28.546Z,24.40
2022-08-17T08:16:59.640Z,24.40
2022-08-17T08:19:30.068Z,24.40
2022-08-17T08:22:05.480Z,24.40
2022-08-17T08:24:55.304Z,24.40
2022-08-17T08:27:34.635Z,24.40
2022-08-17T08:30:09.770Z,24.30
2022-08-17T08:32:54.334Z,24.30
2022-08-17T08:35:32.523Z,24.30
2022-08-17T08:38:09.359Z,24.30
2022-08-17T08:40:50.935Z,24.40
2022-08-17T08:43:28.037Z,24.40
2022-08-17T08:46:05.236Z,24.40
2022-08-17T08:49:10.259Z,24.50
2022-08-17T08:51:52.792Z,24.50
2022-08-17T08:54:34.356Z,24.60
2022-08-17T08:57:25.119Z,24.50
2022-08-17T09:00:12.816Z,24.40
2022-08-17T09:03:08.712Z,24.40
2022-08-17T09:05:56.149Z,24.30
2022-08-17T09:08:31.738Z,24.40
2022-08-17T09:11:06.068Z,24.30
2022-08-17T09:13:43.449Z,24.20
2022-08-17T09:16:15.767Z,24.20
2022-08-17T09:19:00.092Z,24.10
2022-08-17T09:21:38.065Z,24.10
2022-08-17T09:24:22.758Z,24.20
2022-08-17T09:27:39.486Z,24.30
2022-08-17T09:30:10.769Z,24.30
2022-08-17T09:32:41.626Z,24.40
2022-08-17T09:35:16.077Z,24.40
2022-08-17T09:37:51.646Z,24.60
2022-08-17T09:40:26.763Z,24.70
2022-08-17T09:43:00.516Z,24.70
2022-08-17T09:45:33.266Z,24.80
2022-08-17T09:48:07.492Z,24.90
2022-08-17T09:53:31.761Z,25.20
2022-08-17T09:56:24.899Z,25.30
2022-08-17T09:59:20.017Z,25.40
2022-08-17T10:02:01.940Z,25.40
2022-08-17T10:04:41.830Z,25.50
2022-08-17T10:07:16.105Z,25.50
2022-08-17T10:09:55.598Z,25.60
2022-08-17T10:12:34.406Z,25.60
2022-08-17T10:15:22.091Z,25.80
2022-08-17T10:20:31.146Z,25.90
2022-08-17T10:23:19.570Z,25.90
2022-08-17T10:26:09.454Z,25.80
2022-08-17T10:28:52.581Z,25.80
2022-08-17T10:31:34.914Z,25.70
2022-08-17T10:34:38.637Z,25.60
2022-08-17T10:37:49.210Z,25.60
2022-08-17T10:40:28.589Z,25.50
2022-08-17T10:43:00.000Z,25.60
2022-08-17T10:45:38.723Z,25.60
2022-08-17T10:48:28.873Z,25.60
2022-08-17T10:51:07.790Z,25.80
2022-08-17T10:53:51.693Z,25.70
2022-08-17T10:56:23.157Z,26.40
2022-08-17T10:58:53.933Z,25.80
2022-08-17T11:02:00.279Z,25.90
2022-08-17T11:04:43.767Z,25.90
2022-08-17T11:07:19.017Z,25.90
2022-08-17T11:10:08.264Z,25.90
2022-08-17T11:12:44.723Z,25.80
2022-08-17T11:15:24.667Z,25.80
2022-08-17T11:18:19.122Z,25.70
2022-08-17T11:21:18.500Z,25.50
2022-08-17T11:24:21.006Z,25.50
2022-08-17T11:27:04.588Z,25.50
2022-08-17T11:29:38.380Z,25.30
2022-08-17T11:32:13.354Z,25.30
2022-08-17T11:34:44.497Z,25.30
2022-08-17T11:37:37.722Z,25.40
2022-08-17T11:40:22.775Z,25.50
2022-08-17T11:43:04.385Z,25.60
2022-08-17T11:45:52.769Z,25.80
2022-08-17T11:48:48.182Z,26.30
2022-08-17T11:51:34.843Z,26.00
2022-08-17T11:54:32.736Z,26.10
2022-08-17T11:56:56.681Z,26.20
2022-08-17T12:00:00.593Z,26.50
2022-08-17T12:02:48.850Z,26.60
2022-08-17T12:05:34.196Z,26.80
2022-08-17T12:08:17.709Z,27.10
2022-08-17T12:11:00.442Z,27.10
2022-08-17T12:13:37.040Z,27.30
2022-08-17T12:16:09.283Z,27.50
2022-08-17T12:18:41.950Z,27.70
2022-08-17T12:21:29.680Z,27.80
2022-08-17T12:24:06.636Z,27.90
2022-08-17T12:26:36.605Z,27.90
2022-08-17T12:29:09.342Z,28.00
2022-08-17T12:34:19.928Z,27.90
2022-08-17T12:36:51.028Z,27.80
2022-08-17T12:39:24.938Z,27.80
2022-08-17T12:42:01.938Z,27.80
2022-08-17T12:44:32.609Z,27.80
2022-08-17T12:47:04.476Z,27.80
2022-08-17T12:49:35.406Z,27.80
2022-08-17T12:52:09.277Z,27.90
2022-08-17T12:54:45.600Z,27.90
2022-08-17T12:57:16.664Z,28.00
2022-08-17T12:59:48.304Z,28.30
2022-08-17T13:02:29.635Z,28.30
2022-08-17T13:04:59.507Z,29.10
2022-08-17T13:07:30.228Z,28.40
2022-08-17T13:10:00.247Z,28.40
2022-08-17T13:12:33.878Z,28.40
2022-08-17T13:15:02.060Z,28.40
2022-08-17T13:17:34.601Z,28.40
2022-08-17T13:20:06.728Z,28.50
2022-08-17T13:22:34.801Z,28.70
2022-08-17T13:25:08.393Z,28.70
2022-08-17T13:27:36.498Z,28.80
2022-08-17T13:30:11.520Z,28.90
2022-08-17T13:32:43.591Z,28.90
2022-08-17T13:35:41.331Z,29.10
2022-08-17T13:38:14.028Z,29.40
2022-08-17T13:40:52.891Z,29.50
2022-08-17T13:43:44.939Z,29.50
2022-08-17T13:46:19.608Z,29.50
2022-08-17T13:48:57.414Z,29.50
2022-08-17T13:51:31.533Z,29.50
2022-08-17T13:54:03.578Z,29.40
2022-08-17T13:56:40.363Z,29.20
2022-08-17T13:59:12.622Z,29.10
2022-08-17T14:01:47.434Z,29.00
2022-08-17T14:04:19.641Z,28.90
2022-08-17T14:06:54.409Z,28.90
2022-08-17T14:09:26.450Z,29.00
2022-08-17T14:11:57.775Z,29.10
2022-08-17T14:14:26.563Z,29.10
2022-08-17T14:16:54.858Z,29.10
2022-08-17T14:19:22.911Z,29.30
2022-08-17T14:21:52.041Z,29.10
2022-08-17T14:24:26.052Z,29.10
2022-08-17T14:26:56.328Z,29.10
2022-08-17T14:29:27.743Z,29.30
2022-08-17T14:31:56.814Z,29.30
2022-08-17T14:34:26.235Z,29.60
2022-08-17T14:36:54.302Z,30.00
2022-08-17T14:39:22.238Z,30.10
2022-08-17T14:41:50.572Z,30.10
2022-08-17T14:44:19.805Z,30.20
2022-08-17T14:46:48.015Z,30.20
2022-08-17T14:49:17.073Z,30.10
2022-08-17T14:54:32.829Z,30.00
2022-08-17T14:57:22.856Z,29.90
2022-08-17T14:59:55.201Z,29.90
2022-08-17T15:02:29.807Z,30.00
2022-08-17T15:05:02.701Z,30.10
2022-08-17T15:07:31.513Z,30.10
2022-08-17T15:10:01.355Z,30.10
2022-08-17T15:12:33.752Z,30.20
2022-08-17T15:15:04.505Z,30.30
2022-08-17T15:17:45.043Z,30.30
2022-08-17T15:20:16.065Z,30.40
2022-08-17T15:22:47.081Z,30.50
2022-08-17T15:25:15.552Z,30.80
2022-08-17T15:27:44.100Z,31.00
2022-08-17T15:30:14.773Z,31.10
2022-08-17T15:32:50.934Z,31.10
2022-08-17T15:35:27.572Z,31.40
2022-08-17T15:38:07.895Z,31.50
2022-08-17T15:40:41.790Z,31.60
2022-08-17T15:43:12.273Z,31.70
2022-08-17T15:45:42.077Z,31.70
2022-08-17T15:48:10.823Z,31.90
2022-08-17T15:50:38.801Z,32.00
2022-08-17T15:53:06.709Z,32.00
2022-08-17T15:55:36.605Z,32.00
2022-08-17T15:58:05.277Z,32.10
2022-08-17T16:00:36.423Z,32.30
2022-08-17T16:04:01.785Z,32.30
2022-08-17T16:06:08.446Z,32.40
2022-08-17T16:11:10.553Z,32.60
2022-08-17T16:13:39.517Z,32.50
2022-08-17T16:16:08.076Z,32.50
2022-08-17T16:18:38.773Z,32.40
2022-08-17T16:21:27.432Z,32.40
2022-08-17T16:23:59.968Z,32.40
2022-08-17T16:26:28.417Z,32.50
2022-08-17T16:28:57.549Z,32.50
2022-08-17T16:31:25.783Z,32.80
2022-08-17T16:34:08.981Z,33.00
2022-08-17T16:36:54.546Z,33.00
2022-08-17T16:39:23.733Z,33.20
2022-08-17T16:41:51.511Z,33.30
2022-08-17T16:44:22.198Z,33.30
2022-08-17T16:46:51.085Z,33.20
2022-08-17T16:49:25.711Z,33.10
2022-08-17T16:52:07.376Z,33.00
2022-08-17T16:54:37.859Z,33.00
2022-08-17T16:57:06.101Z,33.00
2022-08-17T16:59:40.857Z,32.90
2022-08-17T17:04:48.345Z,32.80
2022-08-17T17:07:44.727Z,32.80
2022-08-17T17:10:16.574Z,33.00
2022-08-17T17:13:02.247Z,33.20
2022-08-17T17:15:53.625Z,33.40
2022-08-17T17:18:32.235Z,33.40
2022-08-17T17:21:02.089Z,33.60
2022-08-17T17:23:43.347Z,34.00
2022-08-17T17:26:22.417Z,35.00
2022-08-17T17:29:04.883Z,35.00
2022-08-17T17:31:40.288Z,35.50
2022-08-17T17:34:11.636Z,35.50
2022-08-17T17:36:45.641Z,35.30
2022-08-17T17:41:48.053Z,35.00
2022-08-17T17:44:19.874Z,35.10
2022-08-17T17:46:52.506Z,35.10
2022-08-17T17:49:21.040Z,35.30
2022-08-17T17:52:10.213Z,35.50
2022-08-17T17:54:55.584Z,35.70
2022-08-17T17:57:33.605Z,36.10
2022-08-17T18:00:08.050Z,36.50
2022-08-17T18:02:51.694Z,36.70
2022-08-17T18:05:58.272Z,36.60
2022-08-17T18:08:44.550Z,36.50
2022-08-17T18:11:25.688Z,36.50
2022-08-17T18:14:15.180Z,36.40
2022-08-17T18:16:44.171Z,35.60
2022-08-17T18:19:13.963Z,35.50
2022-08-17T18:21:46.382Z,34.00
2022-08-17T18:24:15.739Z,34.00
2022-08-17T18:26:48.421Z,33.30
2022-08-17T18:29:47.841Z,32.30
2022-08-17T18:32:32.400Z,31.90
2022-08-17T18:35:22.154Z,31.50
2022-08-17T18:37:52.601Z,31.10
2022-08-17T18:40:37.596Z,31.00
2022-08-17T18:43:25.480Z,30.50
2022-08-17T18:45:55.941Z,30.20
2022-08-17T18:48:33.063Z,30.00
2022-08-17T18:51:21.079Z,29.70
2022-08-17T18:54:18.196Z,29.70
2022-08-17T18:56:54.463Z,29.20
2022-08-17T18:59:34.375Z,29.10
2022-08-17T19:05:13.295Z,28.80
2022-08-17T19:07:44.189Z,28.80
2022-08-17T19:10:21.568Z,28.70
2022-08-17T19:13:00.235Z,28.70
2022-08-17T19:15:39.782Z,28.60
2022-08-17T19:18:15.660Z,28.60
2022-08-17T19:20:48.443Z,28.60
2022-08-17T19:23:22.879Z,28.50
2022-08-17T19:25:52.833Z,28.40
2022-08-17T19:28:25.737Z,28.40
2022-08-17T19:30:57.825Z,28.40
2022-08-17T19:33:26.754Z,28.30
2022-08-17T19:36:03.907Z,28.30
2022-08-17T19:38:44.818Z,28.30
2022-08-17T19:41:20.178Z,28.20
2022-08-17T19:44:23.879Z,28.20
2022-08-17T19:47:02.760Z,28.10
2022-08-17T19:49:52.433Z,28.10
2022-08-17T19:52:47.806Z,28.10
2022-08-17T19:55:21.856Z,28.00
2022-08-17T19:58:00.432Z,27.90
2022-08-17T20:03:06.347Z,27.90
2022-08-17T20:06:08.639Z,27.90
2022-08-17T20:08:29.368Z,27.80
2022-08-17T20:11:00.648Z,26.40
2022-08-17T20:13:44.277Z,27.70
2022-08-17T20:16:13.374Z,27.70
2022-08-17T20:18:50.479Z,27.70
2022-08-17T20:21:20.932Z,27.70
2022-08-17T20:23:54.206Z,27.70
2022-08-17T20:26:27.183Z,27.70
2022-08-17T20:29:29.523Z,27.70
2022-08-17T20:32:25.061Z,27.70
2022-08-17T20:35:08.353Z,27.70
2022-08-17T20:37:42.986Z,27.70
2022-08-17T20:40:25.877Z,27.60
2022-08-17T20:42:54.179Z,27.70
2022-08-17T20:45:49.196Z,27.60
2022-08-17T20:48:36.846Z,27.60
2022-08-17T20:51:28.060Z,27.60
2022-08-17T20:54:28.642Z,27.50
2022-08-17T20:56:59.079Z,27.50
2022-08-17T21:00:02.655Z,27.50
2022-08-17T21:02:32.247Z,27.50
2022-08-17T21:05:40.353Z,27.50
2022-08-17T21:08:17.979Z,27.40
2022-08-17T21:10:47.256Z,27.30
2022-08-17T21:13:34.730Z,27.20
2022-08-17T21:16:10.310Z,27.10
2022-08-17T21:18:45.375Z,27.10
2022-08-17T21:21:25.354Z,27.10
2022-08-17T21:24:09.073Z,27.10
2022-08-17T21:26:50.351Z,27.00
2022-08-17T21:29:31.358Z,26.80
2022-08-17T21:32:24.626Z,26.80
2022-08-17T21:35:28.130Z,26.70
2022-08-17T21:38:03.434Z,26.60
2022-08-17T21:40:34.661Z,26.70
2022-08-17T21:43:16.122Z,26.70
2022-08-17T21:45:44.126Z,26.60
2022-08-17T21:48:15.289Z,26.50
2022-08-17T21:50:47.462Z,26.60
2022-08-17T21:53:30.705Z,26.60
2022-08-17T21:56:02.365Z,26.60
2022-08-17T21:58:32.891Z,26.50
2022-08-17T22:01:20.978Z,26.50
2022-08-17T22:03:57.355Z,26.40
2022-08-17T22:06:27.991Z,26.40
2022-08-17T22:09:11.559Z,26.40
2022-08-17T22:11:57.744Z,26.30
2022-08-17T22:14:52.064Z,26.30
2022-08-17T22:17:19.664Z,26.30
2022-08-17T22:23:24.759Z,26.20
2022-08-17T22:26:00.752Z,26.20
2022-08-17T22:28:42.389Z,26.10
2022-08-17T22:31:14.506Z,26.10
2022-08-17T22:33:47.363Z,26.00
2022-08-17T22:36:29.050Z,26.00
2022-08-17T22:38:59.191Z,26.00
2022-08-17T22:41:41.328Z,26.00
2022-08-17T22:44:27.015Z,26.00
2022-08-17T22:47:00.066Z,26.00
2022-08-17T22:49:32.176Z,26.00
2022-08-17T22:52:19.359Z,26.00
2022-08-17T22:55:09.407Z,25.90
2022-08-17T22:57:51.781Z,25.80
2022-08-17T23:00:33.927Z,25.70
2022-08-17T23:03:09.398Z,25.70
2022-08-17T23:05:38.593Z,25.60
2022-08-17T23:08:06.537Z,25.60
2022-08-17T23:10:35.952Z,25.50
2022-08-17T23:13:04.068Z,25.50
2022-08-17T23:15:33.920Z,25.60
2022-08-17T23:18:04.536Z,25.50
2022-08-17T23:20:34.800Z,25.50
2022-08-17T23:23:03.415Z,25.50
2022-08-17T23:25:33.485Z,25.50
2022-08-17T23:28:02.529Z,25.50
2022-08-17T23:30:31.212Z,25.50
2022-08-17T23:33:02.761Z,25.50
2022-08-17T23:35:39.128Z,25.40
2022-08-17T23:38:09.183Z,25.50
2022-08-17T23:40:37.646Z,25.40
2022-08-17T23:43:23.435Z,25.40
2022-08-17T23:45:53.810Z,25.30
2022-08-17T23:48:35.193Z,25.30
2022-08-17T23:51:08.574Z,25.30
2022-08-17T23:53:37.974Z,25.30
2022-08-17T23:56:10.225Z,25.20
2022-08-17T23:58:39.566Z,25.20
